Lund, Nevada
Current Conditions -  °F | °C
As of 5:53 PM on Tuesday 21 Oct 2014 (Local Time) from KELY Reporting Station
Clear Clear  
Wind Chill: 52°   Ceiling: Unl
Heat Index: 52°   Visibility: 10mi
Dew Point: 10°   Wind: 8mph
Humidity: 19%   Direction: 360°N
Pressure: 30.05"   Gusts: NA
Location:  38.86°N, 115.01°W
Report Text: KELY 220053Z AUTO 36007KT 10SM CLR 11/M12 A3005 RMK AO2 SLP116 T01111122
Loading
Personal Weather Stations






























Interactive Weather Map New forecast layout! Learn more

10-Day Weather Forecast

Advertisements
Track Severe Weather on mobile